Eunice, LA

4:44 AM CDT on October 01, 2016 (GMT -0500)
Cross D Ranch | | Change Station

Elev 49 ft 30.44 °N, 92.33 °W | Updated 4 minutes ago

Clear
Clear
58.2 °F
Feels Like 58.2 °F
N
0.0
Wind Variable Wind from ESE
Gusts 0.0 mph

Today
High -- | Low -- °F
--% Chance of Precip.
Yesterday
High -- | Low -- °F
Precip. -- in
Pressure 30.07 in
Visibility 7.0 miles
Clouds Clear
Dew Point 56 °F
Humidity 91%
Rainfall 0.00 in
Snow Depth Not available.
7:03 AM 6:54 PM
New Moon, 0% visible
METAR KOPL 010935Z AUTO 00000KT 7SM CLR 13/13 A3007 RMK AO2 T01310129 PWINO
Pressure 30.07 in
Visibility 7.0 miles
Clouds Clear
Dew Point 56 °F
Humidity 91%
Rainfall 0.00 in
Snow Depth Not available.
7:03 AM 6:54 PM
New Moon, 0% visible
METAR KOPL 010935Z AUTO 00000KT 7SM CLR 13/13 A3007 RMK AO2 T01310129 PWINO

10-Day Weather Forecast

Almanac

Astronomy

Oct. 01, 2016 Rise Set
Actual Time
Civil Twilight
Nautical Twilight
Astronomical Twilight
Moon
Length of Visible Light
Length of Day
Tomorrow will be .
, % of the Moon is Illuminated

Today's Extremes

State Highs State Lows

Community

WunderPhotos

Upload Photos

1,942,907 photos uploaded!

WunderBlog® & News

Nearby

Air Quality

  Air Quality AQ Index Pollutant
Not available.

Snow Depth

Station Depth Elevation

Earthquake Activity

City Distance Mag. Time & Date
Minimum magnitude displayed is 2.5.

Coastal Water Temperatures

Place Temperature

Stations

Nearby Weather Stations

Station Location Temp. Windchill Dew Point Humidity Wind Precip. Elev Updated Type
                   

Watches & Warnings

There are currently no watches in effect.